Time,TemperatureF,DewpointF,PressureIn,WindDirection,WindDirectionDegrees,WindSpeedMPH,WindSpeedGustMPH,Humidity,HourlyPrecipIn,Conditions,Clouds,dailyrainin,SoftwareType,DateUTC
2013-04-30 00:06:00,51.3,51.0,30.16,NE,50,2.0,3.0,99,0.00,OVC,,0.00,WeatherDisplay:10.37,2013-04-30 04:06:00,
2013-04-30 00:11:00,51.2,50.9,30.16,ENE,58,2.0,4.0,99,0.00,OVC,,0.00,WeatherDisplay:10.37,2013-04-30 04:11:00,
2013-04-30 00:16:00,51.1,50.8,30.15,NE,53,2.0,5.0,99,0.00,OVC,,0.00,WeatherDisplay:10.37,2013-04-30 04:16:00,
2013-04-30 00:21:00,51.1,50.8,30.15,NE,53,1.0,3.0,99,0.00,OVC,,0.00,WeatherDisplay:10.37,2013-04-30 04:21:00,
2013-04-30 00:31:00,51.1,50.8,30.15,ENE,60,2.0,4.0,99,0.00,OVC,,0.00,WeatherDisplay:10.37,2013-04-30 04:31:00,
2013-04-30 00:40:00,51.1,50.9,30.15,ENE,58,1.0,5.0,99,0.00,OVC,,0.00,WeatherDisplay:10.37,2013-04-30 04:40:00,
2013-04-30 00:45:00,51.3,51.0,30.15,ENE,70,2.0,4.0,99,0.00,OVC,,0.00,WeatherDisplay:10.37,2013-04-30 04:45:00,
2013-04-30 00:50:00,51.1,50.8,30.15,ENE,66,2.0,5.0,99,0.00,OVC,,0.00,WeatherDisplay:10.37,2013-04-30 04:50:00,
2013-04-30 00:55:00,51.1,50.8,30.15,ENE,65,2.0,4.0,99,0.00,OVC,,0.00,WeatherDisplay:10.37,2013-04-30 04:55:00,
2013-04-30 01:00:00,51.1,50.8,30.15,ENE,60,2.0,3.0,99,0.00,OVC,,0.00,WeatherDisplay:10.37,2013-04-30 05:00:00,
2013-04-30 01:05:00,51.3,51.0,30.15,ENE,70,2.0,4.0,99,0.00,OVC,,0.00,WeatherDisplay:10.37,2013-04-30 05:05:00,
2013-04-30 01:10:00,51.3,51.0,30.15,East,83,1.0,3.0,99,0.00,OVC,,0.00,WeatherDisplay:10.37,2013-04-30 05:10:00,
2013-04-30 01:15:00,51.3,51.0,30.15,East,82,2.0,5.0,99,0.00,OVC,,0.00,WeatherDisplay:10.37,2013-04-30 05:15:00,
2013-04-30 01:20:00,51.3,51.0,30.15,ENE,60,1.0,5.0,99,0.00,OVC,,0.00,WeatherDisplay:10.37,2013-04-30 05:20:00,
2013-04-30 01:25:00,51.3,51.0,30.15,NE,53,1.0,4.0,99,0.00,OVC,,0.00,WeatherDisplay:10.37,2013-04-30 05:25:00,
2013-04-30 01:30:00,51.3,51.0,30.15,ENE,58,2.0,4.0,99,0.00,OVC,,0.00,WeatherDisplay:10.37,2013-04-30 05:30:00,
2013-04-30 01:35:00,51.3,51.0,30.15,ENE,58,1.0,4.0,99,0.00,OVC,,0.00,WeatherDisplay:10.37,2013-04-30 05:35:00,
2013-04-30 01:40:00,51.3,51.0,30.15,ENE,67,1.0,4.0,99,0.00,OVC,,0.00,WeatherDisplay:10.37,2013-04-30 05:40:00,
2013-04-30 01:45:00,51.3,51.0,30.15,ENE,78,1.0,4.0,99,0.00,OVC,,0.00,WeatherDisplay:10.37,2013-04-30 05:45:00,
2013-04-30 01:50:00,51.3,51.0,30.15,East,80,2.0,3.0,99,0.00,OVC,,0.00,WeatherDisplay:10.37,2013-04-30 05:50:00,
2013-04-30 01:55:00,51.3,51.0,30.15,East,86,2.0,5.0,99,0.00,OVC,,0.00,WeatherDisplay:10.37,2013-04-30 05:55:00,
2013-04-30 02:00:00,51.3,51.0,30.15,East,79,2.0,3.0,99,0.00,OVC,,0.00,WeatherDisplay:10.37,2013-04-30 06:00:00,
2013-04-30 02:05:00,51.3,51.0,30.15,East,82,1.0,3.0,99,0.00,OVC,,0.00,WeatherDisplay:10.37,2013-04-30 06:05:00,
2013-04-30 02:10:00,51.3,51.0,30.15,ENE,77,1.0,3.0,99,0.00,OVC,,0.00,WeatherDisplay:10.37,2013-04-30 06:10:00,
2013-04-30 02:15:00,51.3,51.0,30.15,ENE,70,2.0,5.0,99,0.00,OVC,,0.00,WeatherDisplay:10.37,2013-04-30 06:15:00,
2013-04-30 02:20:00,51.3,51.0,30.14,ENE,71,2.0,4.0,99,0.00,OVC,,0.00,WeatherDisplay:10.37,2013-04-30 06:20:00,
2013-04-30 02:25:00,51.3,51.0,30.15,ENE,66,1.0,6.0,99,0.00,OVC,,0.00,WeatherDisplay:10.37,2013-04-30 06:25:00,
2013-04-30 02:30:00,51.3,51.0,30.15,ENE,75,1.0,2.0,99,0.00,OVC,,0.00,WeatherDisplay:10.37,2013-04-30 06:30:00,
2013-04-30 02:35:00,51.3,51.0,30.15,ENE,59,1.0,5.0,99,0.00,OVC,,0.00,WeatherDisplay:10.37,2013-04-30 06:35:00,
2013-04-30 02:40:00,51.3,51.0,30.15,ENE,76,2.0,4.0,99,0.00,OVC,,0.00,WeatherDisplay:10.37,2013-04-30 06:40:00,
2013-04-30 02:45:00,51.3,51.0,30.15,ENE,65,2.0,3.0,99,0.00,OVC,,0.00,WeatherDisplay:10.37,2013-04-30 06:45:00,
2013-04-30 02:50:00,51.3,51.0,30.15,ENE,62,2.0,4.0,99,0.00,OVC,,0.00,WeatherDisplay:10.37,2013-04-30 06:50:00,
2013-04-30 02:55:00,51.3,51.0,30.15,ENE,72,1.0,3.0,99,0.00,OVC,,0.00,WeatherDisplay:10.37,2013-04-30 06:55:00,
2013-04-30 03:00:00,51.3,51.0,30.15,ENE,74,1.0,5.0,99,0.00,OVC,,0.00,WeatherDisplay:10.37,2013-04-30 07:00:00,
2013-04-30 03:05:00,51.3,51.0,30.15,ENE,61,1.0,3.0,99,0.00,OVC,,0.00,WeatherDisplay:10.37,2013-04-30 07:05:00,
2013-04-30 03:10:00,51.3,51.0,30.15,NE,49,1.0,3.0,99,0.00,OVC,,0.00,WeatherDisplay:10.37,2013-04-30 07:10:00,
2013-04-30 03:15:00,51.3,51.0,30.15,NE,54,2.0,4.0,99,0.00,OVC,,0.00,WeatherDisplay:10.37,2013-04-30 07:15:00,
2013-04-30 03:20:00,51.3,51.0,30.15,NE,56,1.0,3.0,99,0.00,OVC,,0.00,WeatherDisplay:10.37,2013-04-30 07:20:00,
2013-04-30 03:25:00,51.3,51.0,30.15,ENE,64,1.0,4.0,99,0.00,OVC,,0.00,WeatherDisplay:10.37,2013-04-30 07:25:00,
2013-04-30 03:30:00,51.3,51.0,30.15,ENE,59,1.0,2.0,99,0.00,OVC,,0.00,WeatherDisplay:10.37,2013-04-30 07:30:00,
2013-04-30 03:35:00,51.3,51.0,30.15,NE,50,2.0,5.0,99,0.00,OVC,,0.00,WeatherDisplay:10.37,2013-04-30 07:35:00,
2013-04-30 03:40:00,51.3,51.0,30.15,NE,51,1.0,3.0,99,0.00,OVC,,0.00,WeatherDisplay:10.37,2013-04-30 07:40:00,
2013-04-30 03:45:00,51.3,51.0,30.15,NE,48,1.0,2.0,99,0.00,OVC,,0.00,WeatherDisplay:10.37,2013-04-30 07:45:00,
2013-04-30 03:50:00,51.3,51.0,30.15,NE,35,0.0,2.0,99,0.00,OVC,,0.00,WeatherDisplay:10.37,2013-04-30 07:50:00,
2013-04-30 03:55:00,51.3,51.0,30.16,NE,54,2.0,3.0,99,0.00,OVC,,0.00,WeatherDisplay:10.37,2013-04-30 07:55:00,
2013-04-30 04:00:00,51.1,50.8,30.15,NNE,28,0.0,3.0,99,0.00,OVC,,0.00,WeatherDisplay:10.37,2013-04-30 08:00:00,
2013-04-30 04:05:00,51.3,51.0,30.15,NE,38,1.0,4.0,99,0.00,OVC,,0.00,WeatherDisplay:10.37,2013-04-30 08:05:00,
2013-04-30 04:10:00,51.3,51.0,30.16,ENE,68,1.0,2.0,99,0.00,OVC,,0.00,WeatherDisplay:10.37,2013-04-30 08:10:00,
2013-04-30 04:15:00,51.1,50.8,30.16,NE,52,2.0,4.0,99,0.00,OVC,,0.00,WeatherDisplay:10.37,2013-04-30 08:15:00,
2013-04-30 04:20:00,51.1,50.8,30.15,NE,56,2.0,4.0,99,0.00,OVC,,0.00,WeatherDisplay:10.37,2013-04-30 08:20:00,
2013-04-30 04:25:00,51.1,50.8,30.16,ENE,78,1.0,3.0,99,0.00,OVC,,0.00,WeatherDisplay:10.37,2013-04-30 08:25:00,
2013-04-30 04:30:00,51.1,50.8,30.15,ENE,77,1.0,3.0,99,0.00,OVC,,0.00,WeatherDisplay:10.37,2013-04-30 08:30:00,
2013-04-30 04:35:00,51.1,50.8,30.16,NE,53,2.0,6.0,99,0.00,OVC,,0.00,WeatherDisplay:10.37,2013-04-30 08:35:00,
2013-04-30 04:40:00,51.1,50.8,30.16,ENE,61,0.0,3.0,99,0.00,OVC,,0.00,WeatherDisplay:10.37,2013-04-30 08:40:00,
2013-04-30 04:45:00,51.1,50.8,30.16,ENE,77,1.0,3.0,99,0.00,OVC,,0.00,WeatherDisplay:10.37,2013-04-30 08:45:00,
2013-04-30 04:50:00,51.1,50.8,30.16,ENE,77,2.0,4.0,99,0.00,OVC,,0.00,WeatherDisplay:10.37,2013-04-30 08:50:00,
2013-04-30 04:55:00,50.9,50.6,30.16,ENE,62,2.0,4.0,99,0.00,OVC,,0.00,WeatherDisplay:10.37,2013-04-30 08:55:00,
2013-04-30 05:00:00,50.9,50.6,30.16,NE,53,2.0,4.0,99,0.00,OVC,,0.00,WeatherDisplay:10.37,2013-04-30 09:00:00,
2013-04-30 05:05:00,50.9,50.6,30.16,East,83,1.0,4.0,99,0.00,OVC,,0.00,WeatherDisplay:10.37,2013-04-30 09:05:00,
2013-04-30 05:10:00,50.9,50.6,30.16,East,100,1.0,2.0,99,0.00,OVC,,0.00,WeatherDisplay:10.37,2013-04-30 09:10:00,
2013-04-30 05:15:00,50.9,50.6,30.16,East,90,2.0,3.0,99,0.00,OVC,,0.00,WeatherDisplay:10.37,2013-04-30 09:15:00,
2013-04-30 05:20:00,50.9,50.6,30.17,East,86,0.0,3.0,99,0.00,OVC,,0.00,WeatherDisplay:10.37,2013-04-30 09:20:00,
2013-04-30 05:25:00,50.9,50.6,30.17,East,86,0.0,2.0,99,0.00,OVC,,0.00,WeatherDisplay:10.37,2013-04-30 09:25:00,
2013-04-30 05:30:00,50.9,50.6,30.17,ENE,74,1.0,3.0,99,0.00,OVC,,0.00,WeatherDisplay:10.37,2013-04-30 09:30:00,
2013-04-30 05:35:00,50.9,50.6,30.17,ENE,67,1.0,3.0,99,0.00,OVC,,0.00,WeatherDisplay:10.37,2013-04-30 09:35:00,
2013-04-30 05:40:00,50.9,50.6,30.17,ENE,76,3.0,5.0,99,0.00,OVC,,0.00,WeatherDisplay:10.37,2013-04-30 09:40:00,
2013-04-30 05:45:00,50.9,50.6,30.17,East,80,2.0,3.0,99,0.00,OVC,,0.00,WeatherDisplay:10.37,2013-04-30 09:45:00,
2013-04-30 05:50:00,50.9,50.6,30.17,ENE,77,0.0,3.0,99,0.00,OVC,,0.00,WeatherDisplay:10.37,2013-04-30 09:50:00,
2013-04-30 05:55:00,50.9,50.6,30.18,ENE,76,2.0,4.0,99,0.00,OVC,,0.00,WeatherDisplay:10.37,2013-04-30 09:55:00,
2013-04-30 06:00:00,50.9,50.6,30.17,ENE,76,1.0,4.0,99,0.00,OVC,,0.00,WeatherDisplay:10.37,2013-04-30 10:00:00,
2013-04-30 06:05:00,50.9,50.6,30.18,ENE,73,1.0,3.0,99,0.00,OVC,,0.00,WeatherDisplay:10.37,2013-04-30 10:05:00,
2013-04-30 06:10:00,51.0,50.7,30.18,ENE,62,0.0,2.0,99,0.00,OVC,,0.00,WeatherDisplay:10.37,2013-04-30 10:10:00,
2013-04-30 06:15:00,50.9,50.6,30.18,ENE,72,0.0,2.0,99,0.00,OVC,,0.00,WeatherDisplay:10.37,2013-04-30 10:15:00,
2013-04-30 06:20:00,50.9,50.6,30.18,East,87,0.0,1.0,99,0.00,OVC,,0.00,WeatherDisplay:10.37,2013-04-30 10:20:00,
2013-04-30 06:30:00,51.1,50.8,30.18,NE,45,1.0,2.0,99,0.00,OVC,,0.00,WeatherDisplay:10.37,2013-04-30 10:30:00,
2013-04-30 06:35:00,51.1,50.8,30.18,NNE,28,1.0,3.0,99,0.00,OVC,,0.00,WeatherDisplay:10.37,2013-04-30 10:35:00,
2013-04-30 06:40:00,51.1,50.8,30.18,ENE,69,2.0,4.0,99,0.00,OVC,,0.00,WeatherDisplay:10.37,2013-04-30 10:40:00,
2013-04-30 06:45:00,51.1,50.8,30.19,NE,43,1.0,4.0,99,0.00,OVC,,0.00,WeatherDisplay:10.37,2013-04-30 10:45:00,
2013-04-30 06:50:00,51.1,50.8,30.19,NNE,27,1.0,4.0,99,0.00,OVC,,0.00,WeatherDisplay:10.37,2013-04-30 10:50:00,
2013-04-30 07:00:00,51.1,50.8,30.19,NE,46,1.0,3.0,99,0.00,OVC,,0.00,WeatherDisplay:10.37,2013-04-30 11:00:00,
2013-04-30 07:05:00,51.1,50.8,30.19,North,8,3.0,5.0,99,0.00,OVC,,0.00,WeatherDisplay:10.37,2013-04-30 11:05:00,
2013-04-30 07:10:00,51.3,51.0,30.19,NE,51,3.0,6.0,99,0.00,OVC,,0.00,WeatherDisplay:10.37,2013-04-30 11:10:00,
2013-04-30 07:16:00,51.3,51.0,30.20,NE,55,2.0,7.0,99,0.00,OVC,,0.00,WeatherDisplay:10.37,2013-04-30 11:16:00,
2013-04-30 07:21:00,51.3,51.0,30.20,NNE,29,2.0,4.0,99,0.00,OVC,,0.00,WeatherDisplay:10.37,2013-04-30 11:21:00,
2013-04-30 07:26:00,51.4,51.2,30.20,North,11,2.0,4.0,99,0.00,OVC,,0.00,WeatherDisplay:10.37,2013-04-30 11:26:00,
2013-04-30 07:31:00,51.4,51.2,30.20,North,9,2.0,4.0,99,0.00,OVC,,0.00,WeatherDisplay:10.37,2013-04-30 11:31:00,
2013-04-30 07:36:00,51.6,51.3,30.21,North,4,3.0,6.0,99,0.00,OVC,,0.00,WeatherDisplay:10.37,2013-04-30 11:36:00,
2013-04-30 07:41:00,51.8,51.3,30.21,NNE,31,1.0,6.0,98,0.00,OVC,,0.00,WeatherDisplay:10.37,2013-04-30 11:41:00,
2013-04-30 07:46:00,52.0,51.4,30.21,NE,36,2.0,5.0,98,0.00,OVC,,0.00,WeatherDisplay:10.37,2013-04-30 11:46:00,
2013-04-30 07:51:00,52.2,51.6,30.21,NE,38,3.0,6.0,98,0.00,OVC,,0.00,WeatherDisplay:10.37,2013-04-30 11:51:00,
2013-04-30 07:56:00,52.3,51.8,30.21,NNE,28,1.0,6.0,98,0.00,OVC,,0.00,WeatherDisplay:10.37,2013-04-30 11:56:00,
2013-04-30 08:01:00,52.3,51.8,30.21,NNE,24,1.0,4.0,98,0.00,OVC,,0.00,WeatherDisplay:10.37,2013-04-30 12:01:00,
2013-04-30 08:06:00,52.7,52.2,30.22,NE,56,2.0,5.0,98,0.00,OVC,,0.00,WeatherDisplay:10.37,2013-04-30 12:06:00,
2013-04-30 08:11:00,52.9,52.3,30.22,NE,55,2.0,6.0,98,0.00,OVC,,0.00,WeatherDisplay:10.37,2013-04-30 12:11:00,
2013-04-30 08:16:00,53.1,52.5,30.22,NE,44,2.0,6.0,98,0.00,OVC,,0.00,WeatherDisplay:10.37,2013-04-30 12:16:00,
2013-04-30 08:21:00,53.2,52.7,30.22,NNE,26,2.0,6.0,98,0.00,OVC,,0.00,WeatherDisplay:10.37,2013-04-30 12:21:00,
2013-04-30 08:31:00,53.8,52.9,30.23,NE,51,2.0,6.0,97,0.00,OVC,,0.00,WeatherDisplay:10.37,2013-04-30 12:31:00,
2013-04-30 08:36:00,54.0,53.2,30.23,NE,45,1.0,6.0,97,0.00,OVC,,0.00,WeatherDisplay:10.37,2013-04-30 12:36:00,
2013-04-30 08:41:00,54.3,53.5,30.23,ENE,57,1.0,4.0,97,0.00,OVC,,0.00,WeatherDisplay:10.37,2013-04-30 12:41:00,
2013-04-30 08:46:00,54.8,53.7,30.23,ENE,60,2.0,6.0,96,0.00,OVC,,0.00,WeatherDisplay:10.37,2013-04-30 12:46:00,
2013-04-30 08:51:00,55.0,53.9,30.23,NE,48,2.0,6.0,96,0.00,OVC,,0.00,WeatherDisplay:10.37,2013-04-30 12:51:00,
2013-04-30 09:01:00,55.5,53.8,30.23,ENE,65,1.0,8.0,94,0.00,OVC,,0.00,WeatherDisplay:10.37,2013-04-30 13:01:00,
2013-04-30 09:06:00,55.8,53.8,30.23,NE,55,2.0,4.0,93,0.00,OVC,,0.00,WeatherDisplay:10.37,2013-04-30 13:06:00,
2013-04-30 09:11:00,55.9,53.6,30.23,NE,54,3.0,6.0,92,0.00,OVC,,0.00,WeatherDisplay:10.37,2013-04-30 13:11:00,
2013-04-30 09:16:00,56.0,53.5,30.23,ENE,76,5.0,7.0,91,0.00,OVC,,0.00,WeatherDisplay:10.37,2013-04-30 13:16:00,
2013-04-30 09:21:00,56.3,53.1,30.23,ENE,74,2.0,7.0,89,0.00,OVC,,0.00,WeatherDisplay:10.37,2013-04-30 13:21:00,
2013-04-30 09:26:00,56.5,53.3,30.23,East,88,1.0,4.0,89,0.00,OVC,,0.00,WeatherDisplay:10.37,2013-04-30 13:26:00,
2013-04-30 09:31:00,56.7,52.8,30.23,East,82,2.0,5.0,87,0.00,OVC,,0.00,WeatherDisplay:10.37,2013-04-30 13:31:00,
2013-04-30 09:36:00,56.8,52.3,30.24,ENE,72,2.0,4.0,85,0.00,OVC,,0.00,WeatherDisplay:10.37,2013-04-30 13:36:00,
2013-04-30 09:46:00,57.4,52.6,30.23,NE,47,3.0,6.0,84,0.00,OVC,,0.00,WeatherDisplay:10.37,2013-04-30 13:46:00,
2013-04-30 09:51:00,57.7,52.9,30.23,NNE,21,3.0,6.0,84,0.00,OVC,,0.00,WeatherDisplay:10.37,2013-04-30 13:51:00,
2013-04-30 10:01:00,58.2,52.7,30.23,NNE,27,3.0,6.0,82,0.00,OVC,,0.00,WeatherDisplay:10.37,2013-04-30 14:01:00,
2013-04-30 10:06:00,58.5,52.3,30.23,NNE,14,2.0,6.0,80,0.00,OVC,,0.00,WeatherDisplay:10.37,2013-04-30 14:06:00,
2013-04-30 10:11:00,58.7,52.5,30.24,NE,36,3.0,6.0,80,0.00,OVC,,0.00,WeatherDisplay:10.37,2013-04-30 14:11:00,
2013-04-30 10:16:00,59.0,52.1,30.24,ENE,77,3.0,8.0,78,0.00,OVC,,0.00,WeatherDisplay:10.37,2013-04-30 14:16:00,
2013-04-30 10:21:00,59.2,52.0,30.24,ENE,61,1.0,6.0,77,0.00,OVC,,0.00,WeatherDisplay:10.37,2013-04-30 14:21:00,
2013-04-30 10:31:00,59.2,50.2,30.24,NE,39,3.0,8.0,72,0.00,OVC,,0.00,WeatherDisplay:10.37,2013-04-30 14:31:00,
2013-04-30 10:36:00,59.2,49.4,30.24,ENE,63,2.0,8.0,70,0.00,OVC,,0.00,WeatherDisplay:10.37,2013-04-30 14:36:00,
2013-04-30 10:41:00,59.4,49.2,30.23,East,79,2.0,5.0,69,0.00,OVC,,0.00,WeatherDisplay:10.37,2013-04-30 14:41:00,
2013-04-30 10:46:00,59.6,49.8,30.23,ENE,71,2.0,5.0,70,0.00,OVC,,0.00,WeatherDisplay:10.37,2013-04-30 14:46:00,
2013-04-30 10:51:00,60.1,50.3,30.23,NE,45,3.0,6.0,70,0.00,OVC,,0.00,WeatherDisplay:10.37,2013-04-30 14:51:00,
2013-04-30 10:56:00,60.6,50.0,30.23,NNE,32,5.0,8.0,68,0.00,OVC,,0.00,WeatherDisplay:10.37,2013-04-30 14:56:00,
2013-04-30 11:01:00,61.0,49.1,30.23,NE,48,3.0,8.0,65,0.00,OVC,,0.00,WeatherDisplay:10.37,2013-04-30 15:01:00,
2013-04-30 11:06:00,61.3,49.5,30.23,NE,54,5.0,9.0,65,0.00,OVC,,0.00,WeatherDisplay:10.37,2013-04-30 15:06:00,
2013-04-30 11:11:00,61.8,49.9,30.23,NE,44,3.0,7.0,65,0.00,OVC,,0.00,WeatherDisplay:10.37,2013-04-30 15:11:00,
2013-04-30 11:16:00,62.2,49.5,30.23,NE,42,7.0,13.0,63,0.00,OVC,,0.00,WeatherDisplay:10.37,2013-04-30 15:16:00,
2013-04-30 11:21:00,62.3,49.1,30.23,ENE,69,5.0,13.0,62,0.00,OVC,,0.00,WeatherDisplay:10.37,2013-04-30 15:21:00,
2013-04-30 11:31:00,63.3,49.6,30.23,East,80,2.0,8.0,61,0.00,OVC,,0.00,WeatherDisplay:10.37,2013-04-30 15:31:00,
2013-04-30 11:36:00,63.9,50.1,30.23,NE,48,6.0,8.0,61,0.00,OVC,,0.00,WeatherDisplay:10.37,2013-04-30 15:36:00,
2013-04-30 11:41:00,64.3,50.6,30.22,NE,50,3.0,8.0,61,0.00,OVC,,0.00,WeatherDisplay:10.37,2013-04-30 15:41:00,
2013-04-30 11:46:00,64.9,51.1,30.23,ENE,68,6.0,8.0,61,0.00,OVC,,0.00,WeatherDisplay:10.37,2013-04-30 15:46:00,
2013-04-30 11:51:00,65.5,50.8,30.23,ENE,64,7.0,8.0,59,0.00,OVC,,0.00,WeatherDisplay:10.37,2013-04-30 15:51:00,
2013-04-30 11:56:00,65.8,50.2,30.23,ENE,64,3.0,8.0,57,0.00,OVC,,0.00,WeatherDisplay:10.37,2013-04-30 15:56:00,
2013-04-30 12:01:00,66.0,48.9,30.23,East,81,3.0,6.0,54,0.00,OVC,,0.00,WeatherDisplay:10.37,2013-04-30 16:01:00,
2013-04-30 12:06:00,66.2,49.0,30.23,ESE,110,3.0,11.0,54,0.00,OVC,,0.00,WeatherDisplay:10.37,2013-04-30 16:06:00,
2013-04-30 12:11:00,66.3,48.7,30.22,ESE,107,2.0,7.0,53,0.00,OVC,,0.00,WeatherDisplay:10.37,2013-04-30 16:11:00,
2013-04-30 12:16:00,66.6,47.9,30.23,ESE,104,2.0,9.0,51,0.00,OVC,,0.00,WeatherDisplay:10.37,2013-04-30 16:16:00,
2013-04-30 12:21:00,66.9,48.7,30.23,ESE,108,5.0,8.0,52,0.00,OVC,,0.00,WeatherDisplay:10.37,2013-04-30 16:21:00,
2013-04-30 12:31:00,67.5,47.1,30.22,SE,130,5.0,7.0,48,0.00,OVC,,0.00,WeatherDisplay:10.37,2013-04-30 16:31:00,
2013-04-30 12:40:00,68.0,48.1,30.22,ESE,103,3.0,7.0,49,0.00,OVC,,0.00,WeatherDisplay:10.37,2013-04-30 16:40:00,
2013-04-30 12:45:00,68.4,46.2,30.22,East,88,3.0,8.0,45,0.00,OVC,,0.00,WeatherDisplay:10.37,2013-04-30 16:45:00,
2013-04-30 12:50:00,68.8,46.6,30.22,ENE,73,6.0,10.0,45,0.00,OVC,,0.00,WeatherDisplay:10.37,2013-04-30 16:50:00,
2013-04-30 12:55:00,69.3,46.4,30.22,ENE,77,5.0,9.0,44,0.00,OVC,,0.00,WeatherDisplay:10.37,2013-04-30 16:55:00,
2013-04-30 13:00:00,69.6,47.3,30.22,East,86,5.0,10.0,45,0.00,OVC,,0.00,WeatherDisplay:10.37,2013-04-30 17:00:00,
2013-04-30 13:05:00,69.6,46.1,30.22,ENE,73,5.0,12.0,43,0.00,CLR,,0.00,WeatherDisplay:10.37,2013-04-30 17:05:00,
2013-04-30 13:10:00,69.6,46.1,30.22,ENE,69,5.0,8.0,43,0.00,CLR,,0.00,WeatherDisplay:10.37,2013-04-30 17:10:00,
2013-04-30 13:15:00,69.8,46.9,30.22,ENE,58,6.0,9.0,44,0.00,CLR,,0.00,WeatherDisplay:10.37,2013-04-30 17:15:00,
2013-04-30 13:20:00,70.2,46.7,30.22,ENE,69,3.0,8.0,43,0.00,CLR,,0.00,WeatherDisplay:10.37,2013-04-30 17:20:00,
2013-04-30 13:25:00,70.7,45.2,30.23,East,96,2.0,7.0,40,0.00,CLR,,0.00,WeatherDisplay:10.37,2013-04-30 17:25:00,
2013-04-30 13:30:00,70.9,45.3,30.22,ESE,103,5.0,8.0,40,0.00,CLR,,0.00,WeatherDisplay:10.37,2013-04-30 17:30:00,
2013-04-30 13:35:00,71.2,47.0,30.23,ENE,77,3.0,8.0,42,0.00,CLR,,0.00,WeatherDisplay:10.37,2013-04-30 17:35:00,
2013-04-30 13:40:00,71.7,46.7,30.23,ENE,75,2.0,6.0,41,0.00,CLR,,0.00,WeatherDisplay:10.37,2013-04-30 17:40:00,
2013-04-30 13:45:00,72.3,46.0,30.23,East,94,2.0,9.0,39,0.00,CLR,,0.00,WeatherDisplay:10.37,2013-04-30 17:45:00,
2013-04-30 13:50:00,72.3,43.1,30.23,East,84,2.0,7.0,35,0.00,CLR,,0.00,WeatherDisplay:10.37,2013-04-30 17:50:00,
2013-04-30 13:55:00,72.9,43.6,30.23,East,95,3.0,7.0,35,0.00,CLR,,0.00,WeatherDisplay:10.37,2013-04-30 17:55:00,
2013-04-30 14:00:00,72.7,42.7,30.23,East,94,3.0,8.0,34,0.00,CLR,,0.00,WeatherDisplay:10.37,2013-04-30 18:00:00,
2013-04-30 14:05:00,73.2,43.1,30.23,East,85,5.0,8.0,34,0.00,CLR,,0.00,WeatherDisplay:10.37,2013-04-30 18:05:00,
2013-04-30 14:10:00,73.4,44.1,30.22,East,81,5.0,13.0,35,0.00,CLR,,0.00,WeatherDisplay:10.37,2013-04-30 18:10:00,
2013-04-30 14:15:00,73.4,44.1,30.22,NE,52,2.0,13.0,35,0.00,CLR,,0.00,WeatherDisplay:10.37,2013-04-30 18:15:00,
2013-04-30 14:20:00,73.6,43.5,30.23,NE,54,3.0,8.0,34,0.00,CLR,,0.00,WeatherDisplay:10.37,2013-04-30 18:20:00,
2013-04-30 14:25:00,74.3,44.9,30.23,ENE,76,3.0,10.0,35,0.00,CLR,,0.00,WeatherDisplay:10.37,2013-04-30 18:25:00,
2013-04-30 14:30:00,75.2,44.9,30.23,ENE,61,5.0,8.0,34,0.00,CLR,,0.00,WeatherDisplay:10.37,2013-04-30 18:30:00,
2013-04-30 14:35:00,75.2,43.3,30.23,ENE,64,3.0,8.0,32,0.00,CLR,,0.00,WeatherDisplay:10.37,2013-04-30 18:35:00,
2013-04-30 14:40:00,74.7,42.0,30.22,East,94,2.0,6.0,31,0.00,CLR,,0.00,WeatherDisplay:10.37,2013-04-30 18:40:00,
2013-04-30 14:46:00,74.5,43.5,30.23,ENE,61,2.0,7.0,33,0.00,CLR,,0.00,WeatherDisplay:10.37,2013-04-30 18:46:00,
2013-04-30 14:50:00,74.7,45.2,30.23,NE,44,3.0,12.0,35,0.00,CLR,,0.00,WeatherDisplay:10.37,2013-04-30 18:50:00,
2013-04-30 14:56:00,74.8,45.3,30.23,ENE,71,2.0,6.0,35,0.00,CLR,,0.00,WeatherDisplay:10.37,2013-04-30 18:56:00,
2013-04-30 15:01:00,74.6,42.8,30.23,ESE,115,3.0,8.0,32,0.00,CLR,,0.00,WeatherDisplay:10.37,2013-04-30 19:01:00,
2013-04-30 15:06:00,73.9,42.2,30.23,NE,54,5.0,8.0,32,0.00,CLR,,0.00,WeatherDisplay:10.37,2013-04-30 19:06:00,
2013-04-30 15:11:00,73.2,39.9,30.23,ENE,71,3.0,9.0,30,0.00,CLR,,0.00,WeatherDisplay:10.37,2013-04-30 19:11:00,
2013-04-30 15:16:00,72.5,40.1,30.23,East,92,3.0,8.0,31,0.00,CLR,,0.00,WeatherDisplay:10.37,2013-04-30 19:16:00,
2013-04-30 15:21:00,72.1,39.8,30.23,ENE,75,5.0,12.0,31,0.00,CLR,,0.00,WeatherDisplay:10.37,2013-04-30 19:21:00,
2013-04-30 15:26:00,71.1,38.9,30.23,ENE,75,3.0,9.0,31,0.00,CLR,,0.00,WeatherDisplay:10.37,2013-04-30 19:26:00,
2013-04-30 15:31:00,70.2,38.1,30.23,ENE,73,3.0,7.0,31,0.00,CLR,,0.00,WeatherDisplay:10.37,2013-04-30 19:31:00,
2013-04-30 15:36:00,69.8,37.8,30.23,ENE,61,2.0,6.0,31,0.00,CLR,,0.00,WeatherDisplay:10.37,2013-04-30 19:36:00,
2013-04-30 15:41:00,69.4,36.6,30.23,ENE,74,2.0,7.0,30,0.00,CLR,,0.00,WeatherDisplay:10.37,2013-04-30 19:41:00,
2013-04-30 15:46:00,68.9,37.0,30.23,East,88,3.0,6.0,31,0.00,CLR,,0.00,WeatherDisplay:10.37,2013-04-30 19:46:00,
2013-04-30 15:51:00,68.5,35.8,30.23,East,86,3.0,6.0,30,0.00,CLR,,0.00,WeatherDisplay:10.37,2013-04-30 19:51:00,
2013-04-30 15:56:00,68.0,35.4,30.24,East,79,5.0,6.0,30,0.00,CLR,,0.00,WeatherDisplay:10.37,2013-04-30 19:56:00,
2013-04-30 16:01:00,68.0,33.7,30.24,ENE,63,3.0,11.0,28,0.00,CLR,,0.00,WeatherDisplay:10.37,2013-04-30 20:01:00,
2013-04-30 16:06:00,68.2,33.8,30.24,ENE,62,5.0,7.0,28,0.00,CLR,,0.00,WeatherDisplay:10.37,2013-04-30 20:06:00,
2013-04-30 16:11:00,67.8,32.5,30.24,ENE,78,2.0,7.0,27,0.00,CLR,,0.00,WeatherDisplay:10.37,2013-04-30 20:11:00,
2013-04-30 16:16:00,67.2,31.1,30.25,ENE,76,1.0,6.0,26,0.00,CLR,,0.00,WeatherDisplay:10.37,2013-04-30 20:16:00,
2013-04-30 16:21:00,66.6,31.5,30.25,ENE,71,5.0,8.0,27,0.00,CLR,,0.00,WeatherDisplay:10.37,2013-04-30 20:21:00,
2013-04-30 16:26:00,66.2,29.3,30.24,East,84,2.0,8.0,25,0.00,CLR,,0.00,WeatherDisplay:10.37,2013-04-30 20:26:00,
2013-04-30 16:31:00,66.2,29.3,30.25,East,87,1.0,7.0,25,0.00,CLR,,0.00,WeatherDisplay:10.37,2013-04-30 20:31:00,
2013-04-30 16:36:00,66.7,29.7,30.24,East,88,2.0,6.0,25,0.00,CLR,,0.00,WeatherDisplay:10.37,2013-04-30 20:36:00,
2013-04-30 16:41:00,67.5,30.4,30.25,ENE,64,7.0,9.0,25,0.00,CLR,,0.00,WeatherDisplay:10.37,2013-04-30 20:41:00,
2013-04-30 16:46:00,67.6,29.5,30.25,East,79,3.0,9.0,24,0.00,CLR,,0.00,WeatherDisplay:10.37,2013-04-30 20:46:00,
2013-04-30 16:51:00,67.8,27.6,30.25,East,93,5.0,7.0,22,0.00,CLR,,0.00,WeatherDisplay:10.37,2013-04-30 20:51:00,
2013-04-30 16:56:00,67.7,26.3,30.25,East,101,2.0,6.0,21,0.00,CLR,,0.00,WeatherDisplay:10.37,2013-04-30 20:56:00,
2013-04-30 17:01:00,67.3,24.8,30.25,East,101,3.0,6.0,20,0.00,CLR,,0.00,WeatherDisplay:10.37,2013-04-30 21:01:00,
2013-04-30 17:06:00,66.7,26.6,30.25,East,86,1.0,6.0,22,0.00,CLR,,0.00,WeatherDisplay:10.37,2013-04-30 21:06:00,
2013-04-30 17:11:00,66.4,26.3,30.25,ENE,75,2.0,6.0,22,0.00,CLR,,0.00,WeatherDisplay:10.37,2013-04-30 21:11:00,
2013-04-30 17:16:00,65.9,27.0,30.26,ENE,63,3.0,7.0,23,0.00,CLR,,0.00,WeatherDisplay:10.37,2013-04-30 21:16:00,
2013-04-30 17:21:00,65.5,27.7,30.25,ENE,66,1.0,7.0,24,0.00,CLR,,0.00,WeatherDisplay:10.37,2013-04-30 21:21:00,
2013-04-30 17:26:00,65.7,27.9,30.25,ENE,69,3.0,6.0,24,0.00,CLR,,0.00,WeatherDisplay:10.37,2013-04-30 21:26:00,
2013-04-30 17:31:00,66.0,23.8,30.25,East,87,2.0,6.0,20,0.00,CLR,,0.00,WeatherDisplay:10.37,2013-04-30 21:31:00,
2013-04-30 17:36:00,66.4,22.9,30.26,East,91,3.0,6.0,19,0.00,CLR,,0.00,WeatherDisplay:10.37,2013-04-30 21:36:00,
2013-04-30 17:41:00,67.2,23.5,30.25,East,80,1.0,6.0,19,0.00,CLR,,0.00,WeatherDisplay:10.37,2013-04-30 21:41:00,
2013-04-30 17:46:00,67.6,23.9,30.26,East,91,3.0,6.0,19,0.00,CLR,,0.00,WeatherDisplay:10.37,2013-04-30 21:46:00,
2013-04-30 17:51:00,67.8,24.0,30.25,ENE,69,3.0,7.0,19,0.00,CLR,,0.00,WeatherDisplay:10.37,2013-04-30 21:51:00,
2013-04-30 17:56:00,67.8,22.7,30.25,East,84,3.0,7.0,18,0.00,CLR,,0.00,WeatherDisplay:10.37,2013-04-30 21:56:00,
2013-04-30 18:01:00,67.5,22.4,30.25,East,89,5.0,7.0,18,0.00,CLR,,0.00,WeatherDisplay:10.37,2013-04-30 22:01:00,
2013-04-30 18:06:00,67.8,24.0,30.25,East,86,2.0,6.0,19,0.00,CLR,,0.00,WeatherDisplay:10.37,2013-04-30 22:06:00,
2013-04-30 18:11:00,67.5,23.7,30.25,East,93,2.0,8.0,19,0.00,CLR,,0.00,WeatherDisplay:10.37,2013-04-30 22:11:00,
2013-04-30 18:16:00,67.5,24.9,30.25,ESE,109,2.0,8.0,20,0.00,CLR,,0.00,WeatherDisplay:10.37,2013-04-30 22:16:00,
2013-04-30 18:21:00,66.8,24.4,30.26,ESE,102,5.0,9.0,20,0.00,CLR,,0.00,WeatherDisplay:10.37,2013-04-30 22:21:00,
2013-04-30 18:26:00,65.5,24.5,30.26,ENE,77,3.0,8.0,21,0.00,CLR,,0.00,WeatherDisplay:10.37,2013-04-30 22:26:00,
2013-04-30 18:31:00,64.7,24.9,30.26,ENE,77,2.0,7.0,22,0.00,CLR,,0.00,WeatherDisplay:10.37,2013-04-30 22:31:00,
2013-04-30 18:40:00,63.6,26.1,30.26,ENE,68,1.0,6.0,24,0.00,CLR,,0.00,WeatherDisplay:10.37,2013-04-30 22:40:00,
2013-04-30 18:45:00,62.8,26.4,30.26,East,87,5.0,7.0,25,0.00,CLR,,0.00,WeatherDisplay:10.37,2013-04-30 22:45:00,
2013-04-30 18:50:00,62.0,27.6,30.26,East,97,3.0,7.0,27,0.00,CLR,,0.00,WeatherDisplay:10.37,2013-04-30 22:50:00,
2013-04-30 18:55:00,61.4,28.0,30.26,ENE,74,3.0,6.0,28,0.00,CLR,,0.00,WeatherDisplay:10.37,2013-04-30 22:55:00,
2013-04-30 19:00:00,61.3,28.8,30.26,ENE,77,2.0,7.0,29,0.00,CLR,,0.00,WeatherDisplay:10.37,2013-04-30 23:00:00,
2013-04-30 19:05:00,61.2,28.6,30.26,East,92,3.0,6.0,29,0.00,CLR,,0.00,WeatherDisplay:10.37,2013-04-30 23:05:00,
2013-04-30 19:10:00,60.6,27.3,30.26,East,93,3.0,6.0,28,0.00,CLR,,0.00,WeatherDisplay:10.37,2013-04-30 23:10:00,
2013-04-30 19:16:00,60.1,27.7,30.26,East,84,2.0,6.0,29,0.00,CLR,,0.00,WeatherDisplay:10.37,2013-04-30 23:16:00,
2013-04-30 19:21:00,59.9,26.7,30.26,East,84,2.0,6.0,28,0.00,CLR,,0.00,WeatherDisplay:10.37,2013-04-30 23:21:00,
2013-04-30 19:26:00,59.5,28.0,30.26,East,85,1.0,6.0,30,0.00,CLR,,0.00,WeatherDisplay:10.37,2013-04-30 23:26:00,
2013-04-30 19:31:00,59.2,29.3,30.26,East,91,2.0,6.0,32,0.00,CLR,,0.00,WeatherDisplay:10.37,2013-04-30 23:31:00,
2013-04-30 19:36:00,59.0,29.9,30.26,ENE,78,3.0,6.0,33,0.00,CLR,,0.00,WeatherDisplay:10.37,2013-04-30 23:36:00,
2013-04-30 19:41:00,58.6,31.0,30.26,ENE,73,3.0,6.0,35,0.00,CLR,,0.00,WeatherDisplay:10.37,2013-04-30 23:41:00,
2013-04-30 19:46:00,58.4,30.8,30.26,ENE,74,2.0,5.0,35,0.00,CLR,,0.00,WeatherDisplay:10.37,2013-04-30 23:46:00,
2013-04-30 19:51:00,58.1,30.6,30.27,ENE,66,3.0,8.0,35,0.00,CLR,,0.00,WeatherDisplay:10.37,2013-04-30 23:51:00,
2013-04-30 19:56:00,57.6,29.4,30.27,ENE,78,2.0,6.0,34,0.00,CLR,,0.00,WeatherDisplay:10.37,2013-04-30 23:56:00,
2013-04-30 20:06:00,57.0,28.9,30.27,ENE,74,3.0,6.0,34,0.00,CLR,,0.00,WeatherDisplay:10.37,2013-05-01 00:06:00,
2013-04-30 20:11:00,56.6,29.2,30.27,East,80,2.0,6.0,35,0.00,CLR,,0.00,WeatherDisplay:10.37,2013-05-01 00:11:00,
2013-04-30 20:16:00,56.5,28.4,30.27,ENE,73,2.0,6.0,34,0.00,CLR,,0.00,WeatherDisplay:10.37,2013-05-01 00:16:00,
2013-04-30 20:21:00,56.1,28.1,30.27,ENE,69,2.0,4.0,34,0.00,CLR,,0.00,WeatherDisplay:10.37,2013-05-01 00:21:00,
2013-04-30 20:26:00,55.9,27.9,30.27,East,86,2.0,4.0,34,0.00,CLR,,0.00,WeatherDisplay:10.37,2013-05-01 00:26:00,
2013-04-30 20:31:00,55.8,28.5,30.27,East,91,2.0,5.0,35,0.00,CLR,,0.00,WeatherDisplay:10.37,2013-05-01 00:31:00,
2013-04-30 20:36:00,55.6,28.3,30.27,East,88,2.0,4.0,35,0.00,CLR,,0.00,WeatherDisplay:10.37,2013-05-01 00:36:00,
2013-04-30 20:41:00,55.4,28.2,30.28,East,86,1.0,5.0,35,0.00,CLR,,0.00,WeatherDisplay:10.37,2013-05-01 00:41:00,
2013-04-30 20:46:00,55.2,27.3,30.27,East,96,1.0,3.0,34,0.00,CLR,,0.00,WeatherDisplay:10.37,2013-05-01 00:46:00,
2013-04-30 20:51:00,55.0,27.1,30.28,East,91,1.0,3.0,34,0.00,CLR,,0.00,WeatherDisplay:10.37,2013-05-01 00:51:00,
2013-04-30 20:56:00,54.9,27.0,30.28,East,84,1.0,3.0,34,0.00,CLR,,0.00,WeatherDisplay:10.37,2013-05-01 00:56:00,
2013-04-30 21:01:00,54.7,27.6,30.28,East,88,1.0,3.0,35,0.00,CLR,,0.00,WeatherDisplay:10.37,2013-05-01 01:01:00,
2013-04-30 21:10:00,54.5,28.1,30.28,East,90,2.0,3.0,36,0.00,CLR,,0.00,WeatherDisplay:10.37,2013-05-01 01:10:00,
2013-04-30 21:15:00,54.3,28.6,30.28,East,85,1.0,3.0,37,0.00,CLR,,0.00,WeatherDisplay:10.37,2013-05-01 01:15:00,
2013-04-30 21:20:00,54.1,28.4,30.28,East,92,1.0,3.0,37,0.00,CLR,,0.00,WeatherDisplay:10.37,2013-05-01 01:20:00,
2013-04-30 21:25:00,54.0,28.9,30.28,East,89,1.0,2.0,38,0.00,CLR,,0.00,WeatherDisplay:10.37,2013-05-01 01:25:00,
2013-04-30 21:30:00,54.0,29.5,30.28,East,88,1.0,2.0,39,0.00,CLR,,0.00,WeatherDisplay:10.37,2013-05-01 01:30:00,
2013-04-30 21:35:00,53.8,30.6,30.28,East,88,1.0,2.0,41,0.00,CLR,,0.00,WeatherDisplay:10.37,2013-05-01 01:35:00,
2013-04-30 21:41:00,53.6,30.4,30.28,East,87,1.0,2.0,41,0.00,CLR,,0.00,WeatherDisplay:10.37,2013-05-01 01:41:00,
2013-04-30 21:46:00,53.4,30.9,30.28,East,90,1.0,2.0,42,0.00,CLR,,0.00,WeatherDisplay:10.37,2013-05-01 01:46:00,
2013-04-30 21:51:00,53.2,31.3,30.28,East,90,1.0,2.0,43,0.00,CLR,,0.00,WeatherDisplay:10.37,2013-05-01 01:51:00,
2013-04-30 21:56:00,53.1,31.7,30.28,East,90,1.0,2.0,44,0.00,CLR,,0.00,WeatherDisplay:10.37,2013-05-01 01:56:00,
2013-04-30 22:01:00,52.9,31.5,30.28,East,90,1.0,2.0,44,0.00,CLR,,0.00,WeatherDisplay:10.37,2013-05-01 02:01:00,
2013-04-30 22:06:00,52.7,31.4,30.28,East,90,1.0,2.0,44,0.00,CLR,,0.00,WeatherDisplay:10.37,2013-05-01 02:06:00,
2013-04-30 22:11:00,52.5,31.8,30.28,East,90,0.0,2.0,45,0.00,CLR,,0.00,WeatherDisplay:10.37,2013-05-01 02:11:00,
2013-04-30 22:21:00,52.0,30.7,30.28,East,90,0.0,1.0,44,0.00,CLR,,0.00,WeatherDisplay:10.37,2013-05-01 02:21:00,
2013-04-30 22:26:00,51.8,31.1,30.28,East,90,1.0,2.0,45,0.00,CLR,,0.00,WeatherDisplay:10.37,2013-05-01 02:26:00,
2013-04-30 22:36:00,51.4,31.9,30.28,East,90,0.0,1.0,47,0.00,CLR,,0.00,WeatherDisplay:10.37,2013-05-01 02:36:00,
2013-04-30 22:41:00,51.3,32.2,30.28,East,90,0.0,1.0,48,0.00,CLR,,0.00,WeatherDisplay:10.37,2013-05-01 02:41:00,
2013-04-30 22:46:00,51.2,32.7,30.28,East,90,0.0,2.0,49,0.00,CLR,,0.00,WeatherDisplay:10.37,2013-05-01 02:46:00,
2013-04-30 22:51:00,51.1,33.6,30.28,East,90,0.0,1.0,51,0.00,CLR,,0.00,WeatherDisplay:10.37,2013-05-01 02:51:00,
2013-04-30 22:56:00,51.1,33.6,30.28,East,90,0.0,1.0,51,0.00,CLR,,0.00,WeatherDisplay:10.37,2013-05-01 02:56:00,
2013-04-30 23:01:00,50.9,33.4,30.28,East,90,0.0,1.0,51,0.00,CLR,,0.00,WeatherDisplay:10.37,2013-05-01 03:01:00,
2013-04-30 23:06:00,50.9,34.4,30.28,East,90,0.0,2.0,53,0.00,CLR,,0.00,WeatherDisplay:10.37,2013-05-01 03:06:00,
2013-04-30 23:11:00,50.7,34.7,30.28,East,90,0.0,1.0,54,0.00,CLR,,0.00,WeatherDisplay:10.37,2013-05-01 03:11:00,
2013-04-30 23:16:00,50.4,33.9,30.28,East,91,1.0,2.0,53,0.00,CLR,,0.00,WeatherDisplay:10.37,2013-05-01 03:16:00,
2013-04-30 23:21:00,50.2,33.7,30.28,ESE,111,1.0,2.0,53,0.00,CLR,,0.00,WeatherDisplay:10.37,2013-05-01 03:21:00,
2013-04-30 23:26:00,50.1,33.6,30.28,SE,135,1.0,2.0,53,0.00,CLR,,0.00,WeatherDisplay:10.37,2013-05-01 03:26:00,
2013-04-30 23:31:00,50.0,33.5,30.28,SE,135,1.0,2.0,53,0.00,CLR,,0.00,WeatherDisplay:10.37,2013-05-01 03:31:00,
2013-04-30 23:36:00,50.0,33.5,30.28,SE,129,1.0,2.0,53,0.00,CLR,,0.00,WeatherDisplay:10.37,2013-05-01 03:36:00,
2013-04-30 23:42:00,49.8,33.8,30.28,SE,132,0.0,2.0,54,0.00,CLR,,0.00,WeatherDisplay:10.37,2013-05-01 03:42:00,
2013-04-30 23:47:00,49.6,33.7,30.28,SE,128,1.0,2.0,54,0.00,CLR,,0.00,WeatherDisplay:10.37,2013-05-01 03:47:00,
2013-04-30 23:52:00,49.5,33.5,30.28,SE,129,0.0,2.0,54,0.00,CLR,,0.00,WeatherDisplay:10.37,2013-05-01 03:52:00,
2013-04-30 23:57:00,49.5,33.5,30.28,SE,135,1.0,2.0,54,0.00,CLR,,0.00,WeatherDisplay:10.37,2013-05-01 03:57:00,